Time;durP1;ratioP1;P1;durP2;ratioP2;P2;SDS_P1;SDS_P2;PMS_P1;PMS_P2;Temp;Humidity;BMP_temperature;BMP_pressure;BME280_temperature;BME280_humidity;BME280_pressure;Samples;Min_cycle;Max_cycle;Signal;HPM_P1;HPM_P2
2022/09/13 00:00:28;;;;;;;14.43;8.67;;;12.50;99.90;;;;;;5008525;28;20210;-68
2022/09/13 00:02:55;;;;;;;16.40;8.93;;;12.50;99.90;;;;;;5009439;28;20210;-67
2022/09/13 00:05:22;;;;;;;14.83;8.80;;;12.40;99.90;;;;;;5010322;28;20282;-66
2022/09/13 00:07:49;;;;;;;10.47;7.73;;;12.40;99.90;;;;;;5009186;28;20602;-68
2022/09/13 00:10:18;;;;;;;13.57;9.27;;;12.40;99.90;;;;;;5010355;28;20209;-69
2022/09/13 00:12:45;;;;;;;16.83;9.47;;;12.40;99.90;;;;;;5010392;28;20720;-68
2022/09/13 00:15:11;;;;;;;27.40;11.07;;;12.40;99.90;;;;;;5010128;28;20260;-69
2022/09/13 00:17:38;;;;;;;14.67;10.10;;;12.40;99.90;;;;;;5007249;28;20317;-69
2022/09/13 00:20:06;;;;;;;22.27;10.67;;;12.30;99.90;;;;;;5010332;28;20296;-68
2022/09/13 00:22:33;;;;;;;14.33;9.23;;;12.30;99.90;;;;;;5010328;28;20309;-68
2022/09/13 00:25:00;;;;;;;13.90;9.77;;;12.30;99.90;;;;;;5010160;28;20306;-68
2022/09/13 00:27:28;;;;;;;16.47;10.27;;;12.40;99.90;;;;;;5010350;28;20255;-69
2022/09/13 00:29:55;;;;;;;21.67;10.80;;;12.40;99.90;;;;;;5009411;28;20295;-68
2022/09/13 00:32:21;;;;;;;19.27;10.60;;;12.40;99.90;;;;;;5008438;28;20213;-70
2022/09/13 00:34:48;;;;;;;17.03;9.80;;;12.40;99.90;;;;;;5010308;28;20233;-68
2022/09/13 00:37:15;;;;;;;27.27;11.30;;;12.40;99.90;;;;;;5009916;28;20792;-68
2022/09/13 00:39:42;;;;;;;20.33;10.87;;;12.40;99.90;;;;;;5010032;28;20191;-69
2022/09/13 00:42:10;;;;;;;19.43;10.47;;;12.40;99.90;;;;;;5009740;28;20213;-67
2022/09/13 00:45:01;;;;;;;24.53;12.07;;;12.40;99.90;;;;;;5009496;28;20211;-68
2022/09/13 00:47:36;;;;;;;20.30;11.47;;;12.40;99.90;;;;;;5006311;28;20282;-66
2022/09/13 00:50:09;;;;;;;28.47;11.50;;;12.40;99.90;;;;;;5009848;28;20233;-67
2022/09/13 00:52:38;;;;;;;24.53;12.63;;;12.40;99.90;;;;;;5009528;28;20607;-68
2022/09/13 00:55:11;;;;;;;31.77;13.57;;;12.40;99.90;;;;;;5009782;28;20426;-67
2022/09/13 00:57:41;;;;;;;20.63;12.37;;;12.40;99.90;;;;;;5007294;28;20646;-67
2022/09/13 01:00:13;;;;;;;22.53;12.37;;;12.40;99.90;;;;;;5009330;28;20302;-66
2022/09/13 01:02:44;;;;;;;36.30;12.93;;;12.40;99.90;;;;;;5008352;28;20211;-68
2022/09/13 01:05:14;;;;;;;30.40;13.20;;;12.40;99.90;;;;;;5008331;28;20290;-67
2022/09/13 01:07:41;;;;;;;44.53;13.80;;;12.40;99.90;;;;;;5006879;28;20233;-68
2022/09/13 01:10:09;;;;;;;30.83;12.97;;;12.40;99.90;;;;;;5007642;28;20635;-66
2022/09/13 01:12:43;;;;;;;18.50;11.60;;;12.30;99.90;;;;;;5009333;28;20569;-66
2022/09/13 01:15:11;;;;;;;18.70;10.63;;;12.30;99.90;;;;;;5009432;28;20195;-65
2022/09/13 01:17:39;;;;;;;25.93;10.93;;;12.40;99.90;;;;;;5008995;28;20783;-66
2022/09/13 01:20:08;;;;;;;31.50;10.67;;;12.40;99.90;;;;;;5009422;28;20732;-68
2022/09/13 01:23:18;;;;;;;24.80;11.17;;;12.30;99.90;;;;;;5008685;28;20637;-67
2022/09/13 01:26:10;;;;;;;28.77;10.97;;;12.40;99.90;;;;;;5008349;28;20207;-68
2022/09/13 01:29:09;;;;;;;18.80;10.20;;;12.30;99.90;;;;;;5009020;28;20276;-68
2022/09/13 01:31:42;;;;;;;48.77;11.90;;;12.40;99.90;;;;;;5009186;28;20315;-66
2022/09/13 01:34:22;;;;;;;41.90;11.20;;;12.40;99.90;;;;;;5009456;28;20532;-67
2022/09/13 01:37:00;;;;;;;21.23;10.13;;;12.40;99.90;;;;;;5008767;28;20211;-67
2022/09/13 01:39:39;;;;;;;45.33;12.03;;;12.40;99.90;;;;;;5006253;28;20209;-68
2022/09/13 01:42:16;;;;;;;38.13;12.13;;;12.40;99.90;;;;;;5008990;28;20282;-68
2022/09/13 01:45:03;;;;;;;58.37;13.77;;;12.40;99.90;;;;;;5008932;28;20266;-67
2022/09/13 01:47:37;;;;;;;17.07;10.60;;;12.40;99.90;;;;;;5008875;28;20556;-67
2022/09/13 01:50:17;;;;;;;26.13;11.40;;;12.40;99.90;;;;;;5009053;28;20198;-68
2022/09/13 01:52:52;;;;;;;29.43;10.90;;;12.50;99.90;;;;;;5008804;28;20209;-67
2022/09/13 01:55:27;;;;;;;21.33;10.37;;;12.50;99.90;;;;;;5006480;28;20302;-67
2022/09/13 01:58:04;;;;;;;34.13;10.30;;;12.50;99.90;;;;;;5006849;28;20218;-68
2022/09/13 02:00:37;;;;;;;25.57;11.13;;;12.50;99.90;;;;;;5008379;28;20692;-67
2022/09/13 02:03:09;;;;;;;29.40;11.23;;;12.50;99.90;;;;;;5008771;28;20206;-67
2022/09/13 02:05:41;;;;;;;22.63;11.03;;;12.50;99.90;;;;;;5008827;28;20290;-66
2022/09/13 02:08:12;;;;;;;25.07;11.40;;;12.50;99.90;;;;;;5008653;28;20294;-66
2022/09/13 02:10:42;;;;;;;21.57;10.50;;;12.50;99.90;;;;;;5007504;28;20203;-67
2022/09/13 02:13:12;;;;;;;22.27;11.67;;;12.50;99.90;;;;;;5007365;28;20290;-66
2022/09/13 02:15:43;;;;;;;13.73;9.73;;;12.50;99.90;;;;;;5006049;28;20211;-66
2022/09/13 02:18:17;;;;;;;18.03;10.00;;;12.50;99.90;;;;;;5008599;28;20221;-68
2022/09/13 02:20:47;;;;;;;15.93;9.37;;;12.60;99.90;;;;;;5008734;28;20191;-69
2022/09/13 02:23:18;;;;;;;13.17;8.37;;;12.50;99.90;;;;;;5008227;28;20201;-68
2022/09/13 02:25:47;;;;;;;12.53;7.97;;;12.60;99.90;;;;;;5008715;28;20576;-68
2022/09/13 02:28:26;;;;;;;10.37;7.70;;;12.60;99.90;;;;;;5008335;28;20653;-67
2022/09/13 02:30:54;;;;;;;11.93;7.57;;;12.70;99.90;;;;;;5006314;28;20207;-68
2022/09/13 02:33:29;;;;;;;10.87;8.33;;;12.70;99.90;;;;;;5008298;28;20289;-67
2022/09/13 02:36:00;;;;;;;12.47;7.63;;;12.70;99.90;;;;;;5008508;28;20400;-68
2022/09/13 02:38:32;;;;;;;11.00;8.47;;;12.70;99.90;;;;;;5007748;28;20603;-68
2022/09/13 02:41:07;;;;;;;12.87;8.73;;;12.70;99.90;;;;;;5008702;28;20745;-68
2022/09/13 02:43:40;;;;;;;13.20;8.63;;;12.80;99.90;;;;;;5008266;28;20194;-67
2022/09/13 02:46:22;;;;;;;9.77;8.37;;;12.70;99.90;;;;;;5003321;28;20199;-68
2022/09/13 02:49:00;;;;;;;15.63;10.07;;;12.70;99.90;;;;;;5007862;28;20286;-69
2022/09/13 02:51:35;;;;;;;12.93;9.60;;;12.80;99.90;;;;;;5008539;28;20649;-67
2022/09/13 02:54:12;;;;;;;11.70;9.13;;;12.70;99.90;;;;;;5011350;28;20222;-67
2022/09/13 02:56:48;;;;;;;11.43;9.73;;;12.70;99.90;;;;;;5011772;28;20278;-69
2022/09/13 02:59:17;;;;;;;10.43;8.57;;;12.70;99.90;;;;;;5010914;28;20190;-68
2022/09/13 03:01:49;;;;;;;11.10;8.13;;;12.70;99.90;;;;;;5008604;28;20209;-68
2022/09/13 03:04:17;;;;;;;10.93;8.13;;;12.80;99.90;;;;;;5010761;28;20274;-69
2022/09/13 03:06:44;;;;;;;9.70;7.80;;;12.80;99.90;;;;;;5011413;28;20289;-70
2022/09/13 03:09:12;;;;;;;9.90;7.67;;;12.80;99.90;;;;;;5011405;28;20207;-68
2022/09/13 03:11:56;;;;;;;11.50;7.37;;;12.80;99.90;;;;;;5011371;28;20297;-70
2022/09/13 03:14:36;;;;;;;9.90;7.40;;;12.80;99.90;;;;;;5011210;28;20187;-69
2022/09/13 03:17:14;;;;;;;10.23;7.33;;;12.80;99.90;;;;;;5010158;28;20213;-68
2022/09/13 03:20:02;;;;;;;9.27;7.60;;;12.80;99.90;;;;;;5010783;28;20293;-68
2022/09/13 03:23:08;;;;;;;9.13;7.50;;;12.80;99.90;;;;;;5011528;28;20195;-68
2022/09/13 03:25:49;;;;;;;9.53;7.50;;;12.90;99.90;;;;;;5011292;28;20666;-68
2022/09/13 03:28:24;;;;;;;10.90;7.23;;;12.90;99.90;;;;;;5008191;28;20846;-67
2022/09/13 03:30:58;;;;;;;9.83;7.20;;;12.90;99.90;;;;;;5005774;28;20315;-68
2022/09/13 03:33:31;;;;;;;9.93;8.00;;;12.90;99.90;;;;;;5006273;28;20222;-68
2022/09/13 03:36:07;;;;;;;11.50;8.40;;;12.90;99.90;;;;;;5011461;28;20298;-66
2022/09/13 03:38:38;;;;;;;11.53;7.50;;;12.90;99.90;;;;;;5027027;28;20238;-67
2022/09/13 03:41:09;;;;;;;9.87;7.70;;;12.90;99.90;;;;;;4999937;28;20262;-67
2022/09/13 03:43:40;;;;;;;10.30;7.87;;;13.00;99.90;;;;;;5012669;28;20711;-65
2022/09/13 03:46:10;;;;;;;12.03;8.10;;;13.00;99.90;;;;;;5005869;28;20214;-67
2022/09/13 03:48:39;;;;;;;11.80;8.13;;;13.00;99.90;;;;;;5018997;28;20736;-67
2022/09/13 03:51:08;;;;;;;10.53;8.47;;;13.00;99.90;;;;;;5030269;28;20265;-66
2022/09/13 03:53:39;;;;;;;11.50;8.60;;;13.00;99.90;;;;;;4993531;28;20716;-66
2022/09/13 03:56:13;;;;;;;11.97;8.90;;;13.00;99.90;;;;;;5010603;28;20623;-67
2022/09/13 03:58:39;;;;;;;10.67;8.60;;;13.00;99.90;;;;;;5011171;28;20222;-67
2022/09/13 04:01:06;;;;;;;13.33;9.60;;;13.00;99.90;;;;;;5010429;28;20314;-67
2022/09/13 04:03:33;;;;;;;12.97;10.20;;;13.00;99.90;;;;;;5010433;28;20708;-67
2022/09/13 04:06:00;;;;;;;12.97;10.17;;;13.00;99.90;;;;;;5010217;28;20246;-67
2022/09/13 04:08:28;;;;;;;12.27;9.80;;;13.00;99.90;;;;;;5009047;28;20312;-66
2022/09/13 04:10:55;;;;;;;14.23;9.93;;;13.00;99.90;;;;;;5010241;28;20616;-66
2022/09/13 04:13:22;;;;;;;12.97;9.73;;;13.00;99.90;;;;;;5012356;28;20630;-67
2022/09/13 04:15:49;;;;;;;14.90;10.30;;;13.00;99.90;;;;;;5011167;28;20321;-66
2022/09/13 04:18:16;;;;;;;12.70;10.23;;;13.00;99.90;;;;;;5013420;28;20227;-68
2022/09/13 04:20:43;;;;;;;12.57;9.63;;;13.00;99.90;;;;;;5010585;28;20302;-66
2022/09/13 04:23:10;;;;;;;14.57;10.33;;;13.00;99.90;;;;;;5010332;28;20217;-68
2022/09/13 04:25:40;;;;;;;18.40;11.50;;;13.00;99.90;;;;;;5010082;28;20207;-67
2022/09/13 04:28:08;;;;;;;14.23;11.53;;;13.00;99.90;;;;;;5015782;28;20201;-67
2022/09/13 04:30:35;;;;;;;15.40;11.93;;;13.00;99.90;;;;;;5029736;28;20221;-68
2022/09/13 04:33:02;;;;;;;12.80;11.33;;;12.90;99.90;;;;;;5012853;28;20263;-67
2022/09/13 04:35:28;;;;;;;14.50;10.80;;;12.90;99.90;;;;;;5010277;28;20743;-68
2022/09/13 04:37:56;;;;;;;15.37;11.13;;;13.00;99.90;;;;;;5015367;28;20337;-67
2022/09/13 04:40:23;;;;;;;15.37;12.07;;;12.90;99.90;;;;;;5009775;28;20207;-68
2022/09/13 04:42:51;;;;;;;16.90;12.97;;;12.90;99.90;;;;;;5015768;28;20211;-69
2022/09/13 04:45:18;;;;;;;20.07;12.87;;;12.90;99.90;;;;;;5008650;28;20399;-67
2022/09/13 04:47:51;;;;;;;19.87;13.80;;;12.90;99.90;;;;;;5008789;28;20209;-67
2022/09/13 04:50:19;;;;;;;16.77;12.90;;;12.90;99.90;;;;;;5009029;28;20207;-67
2022/09/13 04:52:46;;;;;;;18.50;13.10;;;12.90;99.90;;;;;;5009118;28;20318;-68
2022/09/13 04:55:13;;;;;;;23.10;14.47;;;12.90;99.90;;;;;;5007434;28;20285;-69
2022/09/13 04:57:40;;;;;;;17.47;13.50;;;12.80;99.90;;;;;;5008166;28;20326;-68
2022/09/13 05:00:10;;;;;;;15.27;12.43;;;12.80;99.90;;;;;;5013006;28;20303;-69
2022/09/13 05:02:37;;;;;;;22.43;13.43;;;12.80;99.90;;;;;;5009395;28;20549;-69
2022/09/13 05:05:04;;;;;;;22.33;14.43;;;12.80;99.90;;;;;;5008877;28;20643;-68
2022/09/13 05:07:31;;;;;;;19.20;13.33;;;12.80;99.90;;;;;;5009281;28;20290;-68
2022/09/13 05:09:57;;;;;;;28.37;15.80;;;12.80;99.90;;;;;;5009174;28;20263;-68
2022/09/13 05:12:24;;;;;;;21.90;14.43;;;12.80;99.90;;;;;;5007961;28;20238;-70
2022/09/13 05:14:51;;;;;;;24.70;13.80;;;12.80;99.90;;;;;;5007216;28;20294;-69
2022/09/13 05:17:20;;;;;;;16.67;12.43;;;12.80;99.90;;;;;;5008813;28;20207;-70
2022/09/13 05:19:48;;;;;;;18.23;12.57;;;12.80;99.90;;;;;;5023514;28;20255;-69
2022/09/13 05:22:15;;;;;;;18.87;13.47;;;12.80;99.90;;;;;;5028190;28;20209;-70
2022/09/13 05:24:41;;;;;;;23.67;13.57;;;12.80;99.90;;;;;;5009874;28;20303;-71
2022/09/13 05:27:09;;;;;;;24.57;13.90;;;12.80;99.90;;;;;;5009601;28;20656;-68
2022/09/13 05:29:36;;;;;;;23.23;14.03;;;12.80;99.90;;;;;;5008899;28;20827;-69
2022/09/13 05:32:03;;;;;;;22.53;14.27;;;12.90;99.90;;;;;;5007886;28;20574;-70
2022/09/13 05:34:32;;;;;;;21.40;13.73;;;12.80;99.90;;;;;;5007832;28;20242;-68
2022/09/13 05:36:58;;;;;;;21.07;13.73;;;12.80;99.90;;;;;;5008186;28;20262;-69
2022/09/13 05:39:25;;;;;;;18.00;13.43;;;12.80;99.90;;;;;;5008934;28;20306;-70
2022/09/13 05:41:52;;;;;;;22.17;13.83;;;12.80;99.90;;;;;;5008778;28;20238;-69
2022/09/13 05:44:19;;;;;;;19.53;13.10;;;12.90;99.90;;;;;;5008365;28;20620;-69
2022/09/13 05:46:47;;;;;;;19.00;12.60;;;12.80;99.90;;;;;;5008481;28;20293;-69
2022/09/13 05:49:14;;;;;;;21.87;13.90;;;12.80;99.90;;;;;;5008932;28;20225;-70
2022/09/13 05:51:42;;;;;;;19.13;13.17;;;12.80;99.90;;;;;;5009141;28;20234;-69
2022/09/13 05:54:12;;;;;;;18.10;12.60;;;12.80;99.90;;;;;;5009091;28;20300;-68
2022/09/13 05:56:39;;;;;;;17.57;12.37;;;12.80;99.90;;;;;;5009175;28;20207;-70
2022/09/13 05:59:07;;;;;;;14.37;11.30;;;12.80;99.90;;;;;;5008384;28;20313;-70
2022/09/13 06:01:34;;;;;;;26.17;13.93;;;12.80;99.90;;;;;;5011211;28;20291;-69
2022/09/13 06:04:01;;;;;;;19.43;12.33;;;12.80;99.90;;;;;;5005200;28;20295;-68
2022/09/13 06:06:28;;;;;;;19.80;12.40;;;12.80;99.90;;;;;;5008904;28;20249;-69
2022/09/13 06:08:57;;;;;;;22.97;13.80;;;12.80;99.90;;;;;;5008810;28;20243;-69
2022/09/13 06:11:25;;;;;;;19.73;13.47;;;12.80;99.90;;;;;;5008838;28;20293;-70
2022/09/13 06:13:53;;;;;;;21.47;13.37;;;12.80;99.90;;;;;;5009176;28;20215;-71
2022/09/13 06:16:20;;;;;;;19.33;12.90;;;12.80;99.90;;;;;;5009286;28;20214;-68
2022/09/13 06:18:47;;;;;;;23.63;14.83;;;12.80;99.90;;;;;;5007191;28;20771;-70
2022/09/13 06:21:17;;;;;;;23.37;14.50;;;12.80;99.90;;;;;;5008060;28;20633;-70
2022/09/13 06:23:44;;;;;;;22.20;14.50;;;12.70;99.90;;;;;;5007807;28;20207;-71
2022/09/13 06:26:14;;;;;;;19.87;13.17;;;12.70;99.90;;;;;;5008215;28;20207;-71
2022/09/13 06:28:41;;;;;;;21.40;14.10;;;12.80;99.90;;;;;;5011010;28;20206;-70
2022/09/13 06:31:10;;;;;;;17.73;13.37;;;12.70;99.90;;;;;;5011026;28;20218;-70
2022/09/13 06:33:39;;;;;;;18.20;12.87;;;12.70;99.90;;;;;;5010989;28;20207;-69
2022/09/13 06:36:08;;;;;;;19.10;12.57;;;12.70;99.90;;;;;;5009706;28;20823;-69
2022/09/13 06:38:35;;;;;;;18.83;13.90;;;12.70;99.90;;;;;;5011306;28;20326;-68
2022/09/13 06:41:05;;;;;;;22.03;14.63;;;12.60;99.90;;;;;;5011585;28;20203;-67
2022/09/13 06:43:34;;;;;;;25.57;16.20;;;12.60;99.90;;;;;;5011166;28;20652;-68
2022/09/13 06:46:01;;;;;;;21.97;14.80;;;12.60;99.90;;;;;;5010563;28;20299;-68
2022/09/13 06:48:32;;;;;;;22.30;14.40;;;12.60;99.90;;;;;;5011243;28;20723;-67
2022/09/13 06:50:59;;;;;;;24.80;15.07;;;12.60;99.90;;;;;;5011011;28;20307;-68
2022/09/13 06:53:27;;;;;;;21.67;14.90;;;12.60;99.90;;;;;;5011811;28;20298;-67
2022/09/13 06:56:02;;;;;;;26.60;17.50;;;12.50;99.90;;;;;;5011136;28;20210;-69
2022/09/13 06:58:30;;;;;;;26.70;16.50;;;12.50;99.90;;;;;;5010319;28;20234;-69
2022/09/13 07:01:11;;;;;;;25.77;16.07;;;12.60;99.90;;;;;;5009791;28;20213;-68
2022/09/13 07:03:38;;;;;;;20.77;14.30;;;12.60;99.90;;;;;;5001579;28;20228;-68
2022/09/13 07:06:10;;;;;;;23.47;14.63;;;12.50;99.90;;;;;;5010790;28;20293;-68
2022/09/13 07:08:37;;;;;;;24.90;14.20;;;12.50;99.90;;;;;;5010973;28;20566;-69
2022/09/13 07:11:04;;;;;;;22.47;15.03;;;12.50;99.90;;;;;;5014912;28;20649;-68
2022/09/13 07:13:31;;;;;;;25.23;15.93;;;12.50;99.90;;;;;;5010506;28;20226;-69
2022/09/13 07:16:01;;;;;;;23.00;15.13;;;12.50;99.90;;;;;;5012476;28;20225;-67
2022/09/13 07:18:30;;;;;;;25.53;16.70;;;12.40;99.90;;;;;;5011510;28;20249;-68
2022/09/13 07:21:01;;;;;;;23.90;15.63;;;12.40;99.90;;;;;;5009887;28;20203;-68
2022/09/13 07:23:28;;;;;;;25.10;16.10;;;12.40;99.90;;;;;;5010565;28;20241;-68
2022/09/13 07:26:00;;;;;;;25.20;16.27;;;12.40;99.90;;;;;;5011079;28;20206;-68
2022/09/13 07:28:28;;;;;;;19.87;14.10;;;12.40;99.90;;;;;;5012439;28;20215;-68
2022/09/13 07:30:57;;;;;;;18.67;14.03;;;12.40;99.90;;;;;;5010406;28;20213;-68
2022/09/13 07:33:24;;;;;;;20.97;13.43;;;12.40;99.90;;;;;;5010509;28;20210;-69
2022/09/13 07:35:56;;;;;;;19.37;13.43;;;12.40;99.90;;;;;;5007784;28;20290;-69
2022/09/13 07:38:23;;;;;;;17.23;13.53;;;12.40;99.90;;;;;;5011054;28;20235;-70
2022/09/13 07:40:57;;;;;;;15.93;12.40;;;12.40;99.90;;;;;;5010479;28;20301;-69
2022/09/13 07:43:24;;;;;;;17.27;12.77;;;12.40;99.90;;;;;;5012243;28;20199;-68
2022/09/13 07:45:57;;;;;;;19.93;12.87;;;12.40;99.90;;;;;;5010758;28;20293;-69
2022/09/13 07:48:25;;;;;;;18.73;14.33;;;12.50;99.90;;;;;;5009740;28;20203;-68
2022/09/13 07:51:02;;;;;;;16.17;12.33;;;12.50;99.90;;;;;;5010291;28;20325;-68
2022/09/13 07:53:29;;;;;;;18.47;13.40;;;12.50;99.90;;;;;;5006623;28;20263;-68
2022/09/13 07:56:01;;;;;;;19.00;13.60;;;12.60;99.90;;;;;;5011957;28;20252;-69
2022/09/13 07:58:28;;;;;;;18.03;13.27;;;12.50;99.90;;;;;;5012863;28;20584;-69
2022/09/13 08:00:54;;;;;;;20.63;13.13;;;12.50;99.90;;;;;;5010533;28;20233;-68
2022/09/13 08:03:21;;;;;;;17.53;13.10;;;12.50;99.90;;;;;;5008893;28;20212;-69
2022/09/13 08:05:48;;;;;;;18.27;13.03;;;12.50;99.90;;;;;;5009832;28;20287;-69
2022/09/13 08:08:18;;;;;;;17.07;13.03;;;12.60;99.90;;;;;;5009204;28;20298;-68
2022/09/13 08:10:45;;;;;;;20.60;14.07;;;12.60;99.90;;;;;;5010229;28;20725;-69
2022/09/13 08:13:12;;;;;;;16.83;12.30;;;12.50;99.90;;;;;;5077321;28;20198;-69
2022/09/13 08:15:39;;;;;;;19.27;13.47;;;12.60;99.90;;;;;;5010442;28;20207;-69
2022/09/13 08:18:06;;;;;;;20.27;12.73;;;12.60;99.90;;;;;;5010652;28;20633;-69
2022/09/13 08:20:36;;;;;;;16.93;12.90;;;12.60;99.90;;;;;;5009998;28;20234;-69
2022/09/13 08:23:04;;;;;;;21.80;14.57;;;12.50;99.90;;;;;;5010538;28;20213;-70
2022/09/13 08:25:34;;;;;;;19.43;14.30;;;12.50;99.90;;;;;;5010123;28;20264;-68
2022/09/13 08:28:01;;;;;;;20.20;13.70;;;12.60;99.90;;;;;;5010123;28;20215;-69
2022/09/13 08:30:31;;;;;;;20.90;14.07;;;12.60;99.90;;;;;;5010124;28;20199;-69
2022/09/13 08:33:00;;;;;;;22.67;14.00;;;12.60;99.90;;;;;;5009272;28;20202;-69
2022/09/13 08:35:27;;;;;;;20.80;14.67;;;12.60;99.90;;;;;;5010197;28;20605;-69
2022/09/13 08:37:53;;;;;;;20.70;14.03;;;12.60;99.90;;;;;;5010048;28;20318;-69
2022/09/13 08:40:21;;;;;;;19.60;14.37;;;12.70;99.90;;;;;;5009340;28;20222;-71
2022/09/13 08:42:56;;;;;;;20.63;14.70;;;12.70;99.90;;;;;;5009326;28;20293;-69
2022/09/13 08:45:23;;;;;;;20.70;13.73;;;12.70;99.90;;;;;;5010110;28;20279;-69
2022/09/13 08:47:56;;;;;;;19.83;13.50;;;12.60;99.90;;;;;;5009918;28;20260;-69
2022/09/13 08:50:27;;;;;;;16.70;12.73;;;12.60;99.90;;;;;;5008966;28;20223;-69
2022/09/13 08:53:12;;;;;;;17.27;13.30;;;12.60;99.90;;;;;;5009646;28;20587;-73
2022/09/13 08:55:51;;;;;;;18.50;13.70;;;12.60;99.90;;;;;;5008463;28;20616;-70
2022/09/13 08:58:40;;;;;;;22.77;14.03;;;12.60;99.90;;;;;;5009515;28;20277;-70
2022/09/13 09:01:12;;;;;;;22.97;14.93;;;12.60;99.90;;;;;;5010087;28;20191;-70
2022/09/13 09:03:46;;;;;;;27.40;15.60;;;12.50;99.90;;;;;;5009923;28;20621;-69
2022/09/13 09:06:15;;;;;;;19.03;12.80;;;12.60;99.90;;;;;;5009144;28;20290;-69
2022/09/13 09:08:46;;;;;;;19.23;12.40;;;12.70;99.90;;;;;;5009930;28;20298;-70
2022/09/13 09:11:26;;;;;;;19.83;13.53;;;12.70;99.90;;;;;;5009104;28;20675;-70
2022/09/13 09:14:01;;;;;;;22.47;13.67;;;12.80;99.90;;;;;;5010003;28;20248;-70
2022/09/13 09:16:33;;;;;;;17.23;12.20;;;12.90;99.90;;;;;;5006725;28;20210;-70
2022/09/13 09:19:11;;;;;;;20.23;13.27;;;12.90;99.90;;;;;;5012067;28;20290;-72
2022/09/13 09:21:38;;;;;;;14.77;11.07;;;13.00;99.90;;;;;;5009606;28;20191;-68
2022/09/13 09:24:06;;;;;;;15.47;11.50;;;13.00;99.90;;;;;;5009917;28;20209;-71
2022/09/13 09:26:33;;;;;;;16.97;10.83;;;13.00;99.90;;;;;;5008953;28;20209;-69
2022/09/13 09:29:10;;;;;;;16.97;11.33;;;13.00;99.90;;;;;;5008384;28;20245;-68
2022/09/13 09:31:44;;;;;;;17.73;11.60;;;12.80;99.90;;;;;;5009677;28;20222;-70
2022/09/13 09:34:18;;;;;;;18.23;11.73;;;12.90;99.90;;;;;;5007403;28;20293;-70
2022/09/13 09:36:52;;;;;;;17.53;12.47;;;12.90;99.90;;;;;;5009444;28;20198;-72
2022/09/13 09:39:18;;;;;;;16.37;11.90;;;12.90;99.90;;;;;;5008776;28;20739;-70
2022/09/13 09:41:45;;;;;;;16.57;12.00;;;12.90;99.90;;;;;;5009362;28;20631;-69
2022/09/13 09:44:21;;;;;;;15.93;11.90;;;12.80;99.90;;;;;;5008219;28;20205;-70
2022/09/13 09:46:51;;;;;;;18.77;12.83;;;12.70;99.90;;;;;;5009467;28;20663;-69
2022/09/13 09:52:12;;;;;;;19.37;12.73;;;12.70;99.90;;;;;;5010560;28;20187;-70
2022/09/13 09:54:40;;;;;;;19.03;12.83;;;12.70;99.90;;;;;;5007837;28;20712;-68
2022/09/13 09:57:08;;;;;;;17.43;12.13;;;12.70;99.90;;;;;;5006777;28;20203;-70
2022/09/13 09:59:36;;;;;;;19.00;12.23;;;12.70;99.90;;;;;;5006583;28;20223;-70
2022/09/13 10:02:14;;;;;;;17.90;12.00;;;12.80;99.90;;;;;;5011766;28;20230;-70
2022/09/13 10:04:42;;;;;;;18.83;11.60;;;12.80;99.90;;;;;;5012688;28;20629;-73
2022/09/13 10:07:19;;;;;;;14.63;10.60;;;12.80;99.90;;;;;;5012728;28;20684;-69
2022/09/13 10:09:58;;;;;;;16.07;11.10;;;12.80;99.90;;;;;;5011692;28;20217;-69
2022/09/13 13:12:45;;;;;;;11.90;7.30;;;12.80;99.90;;;;;;5088527;28;21039;-69
2022/09/13 13:15:51;;;;;;;11.53;7.90;;;12.90;99.90;;;;;;5086285;28;20224;-72
2022/09/13 13:18:23;;;;;;;11.47;7.20;;;12.90;99.90;;;;;;5085102;28;20212;-70
2022/09/13 13:21:32;;;;;;;13.23;8.20;;;12.90;99.90;;;;;;5085616;28;20265;-69
2022/09/13 13:24:36;;;;;;;14.23;9.37;;;12.90;99.90;;;;;;5093251;28;20250;-69
2022/09/13 13:27:35;;;;;;;15.43;8.57;;;12.90;99.90;;;;;;5088626;28;20218;-71
2022/09/13 13:30:42;;;;;;;12.43;8.33;;;12.90;99.90;;;;;;5086041;28;20219;-68
2022/09/13 13:33:16;;;;;;;12.33;8.17;;;12.80;99.90;;;;;;5084418;28;20197;-68
2022/09/13 13:35:43;;;;;;;12.33;8.90;;;12.70;99.90;;;;;;5082417;28;20282;-68
2022/09/13 13:38:32;;;;;;;14.23;9.00;;;12.60;99.90;;;;;;5088441;28;20200;-69
2022/09/13 13:41:26;;;;;;;12.67;8.23;;;12.70;99.90;;;;;;5079192;28;20212;-68
2022/09/13 13:43:53;;;;;;;13.83;8.97;;;12.70;99.90;;;;;;5088570;28;20188;-68
2022/09/13 13:46:39;;;;;;;14.47;8.63;;;12.70;99.90;;;;;;5088107;28;20235;-69
2022/09/13 13:49:44;;;;;;;16.53;8.77;;;12.80;99.90;;;;;;5082058;28;20200;-70
2022/09/13 13:52:35;;;;;;;14.37;8.83;;;12.80;99.90;;;;;;5090095;28;20261;-68
2022/09/13 13:55:24;;;;;;;15.53;10.10;;;12.80;99.90;;;;;;5068341;28;20335;-68
2022/09/13 13:57:59;;;;;;;14.00;9.83;;;12.70;99.90;;;;;;5068477;28;20531;-69
2022/09/13 14:00:30;;;;;;;12.00;8.17;;;12.70;99.90;;;;;;5067635;28;20232;-69
2022/09/13 14:03:11;;;;;;;13.53;8.97;;;12.70;99.90;;;;;;5067444;28;20255;-68
2022/09/13 14:05:43;;;;;;;12.80;8.33;;;12.80;99.90;;;;;;5073832;28;20236;-69
2022/09/13 14:08:32;;;;;;;11.10;8.00;;;12.80;99.90;;;;;;5074647;28;20592;-68
2022/09/13 14:11:09;;;;;;;11.97;7.77;;;12.70;99.90;;;;;;5077156;28;20658;-69
2022/09/13 14:13:49;;;;;;;11.13;7.17;;;12.60;99.90;;;;;;5074533;28;20212;-70
2022/09/13 14:16:33;;;;;;;9.33;7.07;;;12.60;99.90;;;;;;5054788;28;20621;-71
2022/09/13 14:19:18;;;;;;;10.40;7.97;;;12.60;99.90;;;;;;5065596;28;20248;-68
2022/09/13 14:21:45;;;;;;;19.77;13.50;;;12.60;99.90;;;;;;5059629;28;20304;-68
2022/09/13 18:05:22;;;;;;;13.47;8.80;;;10.90;99.90;;;;;;5109038;27;20537;-65
2022/09/13 18:07:49;;;;;;;13.23;8.10;;;11.50;99.90;;;;;;5115021;28;20302;-69
2022/09/13 18:10:16;;;;;;;10.43;8.13;;;11.50;99.90;;;;;;5109922;28;20498;-66
2022/09/13 18:12:43;;;;;;;11.33;7.47;;;11.50;99.90;;;;;;5105891;28;20203;-65
2022/09/13 18:15:10;;;;;;;9.40;7.70;;;11.50;99.90;;;;;;5107356;28;20718;-66
2022/09/13 18:17:37;;;;;;;10.93;7.63;;;11.60;99.90;;;;;;5108945;28;20280;-65
2022/09/13 18:20:04;;;;;;;12.10;7.77;;;11.60;99.90;;;;;;5108838;28;20219;-65
2022/09/13 18:22:33;;;;;;;9.20;7.20;;;11.60;99.90;;;;;;5107794;28;20203;-67
2022/09/13 18:24:59;;;;;;;9.87;7.20;;;11.70;99.90;;;;;;5111679;28;20210;-65
2022/09/13 18:27:26;;;;;;;12.00;7.63;;;11.70;99.90;;;;;;5107078;28;20227;-68
2022/09/13 18:29:53;;;;;;;11.90;8.03;;;11.70;99.90;;;;;;5106207;28;20652;-65
2022/09/13 18:32:20;;;;;;;10.13;7.40;;;11.70;99.90;;;;;;5104401;28;20290;-67
2022/09/13 18:34:47;;;;;;;12.37;7.60;;;11.70;99.90;;;;;;5108005;28;20293;-67
2022/09/13 18:37:14;;;;;;;9.97;7.53;;;11.70;99.90;;;;;;5108212;28;20557;-66
2022/09/13 18:39:42;;;;;;;14.23;10.47;;;11.70;99.90;;;;;;5108812;28;20264;-66
2022/09/13 18:42:09;;;;;;;12.10;8.00;;;11.80;99.90;;;;;;5104609;28;20654;-67
2022/09/13 18:44:36;;;;;;;12.33;7.80;;;11.80;99.90;;;;;;5088276;28;20246;-66
2022/09/13 18:47:04;;;;;;;9.83;8.00;;;11.80;99.90;;;;;;5087970;28;20207;-65
2022/09/13 18:49:31;;;;;;;11.73;7.63;;;11.90;99.90;;;;;;5088300;28;20544;-68
2022/09/13 18:51:57;;;;;;;10.37;8.17;;;11.90;99.90;;;;;;5087746;28;20206;-66
2022/09/13 18:54:24;;;;;;;10.67;8.23;;;11.90;99.90;;;;;;5100465;28;20315;-69
2022/09/13 18:56:54;;;;;;;9.40;7.27;;;11.90;99.90;;;;;;5088042;28;20618;-71
2022/09/13 18:59:21;;;;;;;11.20;8.30;;;12.00;99.90;;;;;;5089117;28;20318;-68
2022/09/13 19:01:48;;;;;;;9.40;8.00;;;12.00;99.90;;;;;;5086703;28;20302;-66
2022/09/13 19:04:16;;;;;;;9.80;8.23;;;12.10;99.90;;;;;;5085614;28;20232;-70
2022/09/13 19:06:44;;;;;;;15.80;9.33;;;12.10;99.90;;;;;;5074205;28;20209;-69
2022/09/13 19:09:13;;;;;;;13.97;8.97;;;12.10;99.90;;;;;;5073782;28;20678;-70
2022/09/13 19:11:41;;;;;;;11.70;9.57;;;12.10;99.90;;;;;;5074699;28;20321;-69
2022/09/13 19:14:11;;;;;;;13.93;9.17;;;12.10;99.90;;;;;;5073418;28;20757;-67
2022/09/13 19:16:37;;;;;;;17.27;10.97;;;12.10;99.90;;;;;;5074283;28;20200;-68
2022/09/13 19:19:04;;;;;;;18.53;13.70;;;12.10;99.90;;;;;;5074112;28;20289;-66
2022/09/13 19:21:32;;;;;;;16.60;9.67;;;12.10;99.90;;;;;;5073201;28;20287;-69
2022/09/13 19:24:00;;;;;;;12.57;9.40;;;12.20;99.90;;;;;;5072726;28;20231;-68
2022/09/13 19:26:29;;;;;;;11.63;9.30;;;12.20;99.90;;;;;;5073998;28;20637;-69
2022/09/13 19:29:02;;;;;;;10.93;8.83;;;12.20;99.90;;;;;;5073798;28;20742;-69
2022/09/13 19:31:31;;;;;;;13.97;10.50;;;12.20;99.90;;;;;;5073601;28;20275;-68
2022/09/13 19:34:00;;;;;;;15.97;10.30;;;12.20;99.90;;;;;;5064690;28;20207;-70
2022/09/13 19:36:29;;;;;;;12.73;9.87;;;12.20;99.90;;;;;;5053760;28;20205;-70